Terminal Aerodrome Forecast
Issued by NWS Jackson, MS

Home | Current Version | Previous Version | Text Only | Print | Product List | Glossary On
Versions: 1 2 3 4 5 6 7 8 9 10 11 12 13 14 15 16 17 18 19 20 21 22 23
000
FTUS44 KJAN 222200 AAC
TAFHBG
TAF AMD
KHBG 222217Z 2222/2318 08006KT P6SM VCTS SCT035CB BKN100
      TEMPO 2222/2223 VRB10KT 2SM TSRA BR BKN030CB
     FM230200 00000KT P6SM SCT100 BKN250
     FM230900 00000KT 4SM BR SCT250
     FM231400 18003KT P6SM SCT250=

USA.gov is the U.S. government's official web portal to all federal, state and local government web resources and services.